sensor_id;sensor_type;location;lat;lon;timestamp;P1;durP1;ratioP1;P2;durP2;ratioP2
63492;SDS011;49638;47.526;10.028;2023-05-14T00:01:27;12.68;;;7.97;;
63492;SDS011;49638;47.526;10.028;2023-05-14T00:04:28;11.00;;;7.50;;
63492;SDS011;49638;47.526;10.028;2023-05-14T00:07:28;13.77;;;7.80;;
63492;SDS011;49638;47.526;10.028;2023-05-14T00:10:29;17.38;;;8.18;;
63492;SDS011;49638;47.526;10.028;2023-05-14T00:13:29;14.05;;;8.40;;
63492;SDS011;49638;47.526;10.028;2023-05-14T00:16:30;13.25;;;7.85;;
63492;SDS011;49638;47.526;10.028;2023-05-14T00:19:30;12.60;;;7.47;;
63492;SDS011;49638;47.526;10.028;2023-05-14T00:22:30;15.02;;;8.18;;
63492;SDS011;49638;47.526;10.028;2023-05-14T00:25:31;11.65;;;7.75;;
63492;SDS011;49638;47.526;10.028;2023-05-14T00:28:31;12.48;;;8.02;;
63492;SDS011;49638;47.526;10.028;2023-05-14T00:31:31;14.45;;;8.95;;
63492;SDS011;49638;47.526;10.028;2023-05-14T00:34:31;15.50;;;9.43;;
63492;SDS011;49638;47.526;10.028;2023-05-14T00:37:31;16.55;;;9.50;;
63492;SDS011;49638;47.526;10.028;2023-05-14T00:40:32;16.70;;;10.07;;
63492;SDS011;49638;47.526;10.028;2023-05-14T00:43:33;15.38;;;8.77;;
63492;SDS011;49638;47.526;10.028;2023-05-14T00:46:33;14.32;;;8.48;;
63492;SDS011;49638;47.526;10.028;2023-05-14T00:49:33;14.05;;;8.18;;
63492;SDS011;49638;47.526;10.028;2023-05-14T00:52:34;15.82;;;9.10;;
63492;SDS011;49638;47.526;10.028;2023-05-14T00:55:36;17.40;;;9.02;;
63492;SDS011;49638;47.526;10.028;2023-05-14T00:58:37;16.50;;;9.38;;
63492;SDS011;49638;47.526;10.028;2023-05-14T01:01:38;15.18;;;9.02;;
63492;SDS011;49638;47.526;10.028;2023-05-14T01:04:38;18.00;;;9.10;;
63492;SDS011;49638;47.526;10.028;2023-05-14T01:07:48;16.15;;;9.00;;
63492;SDS011;49638;47.526;10.028;2023-05-14T01:11:05;13.00;;;7.63;;
63492;SDS011;49638;47.526;10.028;2023-05-14T01:14:16;13.00;;;6.95;;
63492;SDS011;49638;47.526;10.028;2023-05-14T01:17:18;12.00;;;7.47;;
63492;SDS011;49638;47.526;10.028;2023-05-14T01:20:21;10.13;;;5.78;;
63492;SDS011;49638;47.526;10.028;2023-05-14T01:23:22;14.50;;;8.40;;
63492;SDS011;49638;47.526;10.028;2023-05-14T01:26:22;21.17;;;10.40;;
63492;SDS011;49638;47.526;10.028;2023-05-14T01:29:22;19.00;;;10.73;;
63492;SDS011;49638;47.526;10.028;2023-05-14T01:32:26;17.85;;;9.77;;
63492;SDS011;49638;47.526;10.028;2023-05-14T01:35:28;12.27;;;7.45;;
63492;SDS011;49638;47.526;10.028;2023-05-14T01:38:29;13.95;;;7.88;;
63492;SDS011;49638;47.526;10.028;2023-05-14T01:41:32;16.20;;;8.73;;
63492;SDS011;49638;47.526;10.028;2023-05-14T01:44:33;15.57;;;8.88;;
63492;SDS011;49638;47.526;10.028;2023-05-14T01:47:34;17.85;;;9.90;;
63492;SDS011;49638;47.526;10.028;2023-05-14T01:50:34;17.20;;;10.00;;
63492;SDS011;49638;47.526;10.028;2023-05-14T01:53:34;17.48;;;10.02;;
63492;SDS011;49638;47.526;10.028;2023-05-14T01:56:34;17.33;;;10.20;;
63492;SDS011;49638;47.526;10.028;2023-05-14T01:59:35;15.77;;;9.75;;
63492;SDS011;49638;47.526;10.028;2023-05-14T02:02:35;15.18;;;8.77;;
63492;SDS011;49638;47.526;10.028;2023-05-14T02:05:35;15.00;;;9.38;;
63492;SDS011;49638;47.526;10.028;2023-05-14T02:08:35;16.27;;;9.48;;
63492;SDS011;49638;47.526;10.028;2023-05-14T02:11:36;12.98;;;7.57;;
63492;SDS011;49638;47.526;10.028;2023-05-14T02:14:36;11.45;;;6.32;;
63492;SDS011;49638;47.526;10.028;2023-05-14T02:17:37;12.40;;;6.78;;
63492;SDS011;49638;47.526;10.028;2023-05-14T02:20:37;12.25;;;7.93;;
63492;SDS011;49638;47.526;10.028;2023-05-14T02:23:37;11.32;;;7.68;;
63492;SDS011;49638;47.526;10.028;2023-05-14T02:26:37;16.63;;;9.68;;
63492;SDS011;49638;47.526;10.028;2023-05-14T02:29:38;17.58;;;9.55;;
63492;SDS011;49638;47.526;10.028;2023-05-14T02:32:38;17.30;;;10.00;;
63492;SDS011;49638;47.526;10.028;2023-05-14T02:35:38;19.92;;;11.32;;
63492;SDS011;49638;47.526;10.028;2023-05-14T02:38:38;20.80;;;11.95;;
63492;SDS011;49638;47.526;10.028;2023-05-14T02:41:39;18.58;;;10.77;;
63492;SDS011;49638;47.526;10.028;2023-05-14T02:44:39;20.58;;;11.40;;
63492;SDS011;49638;47.526;10.028;2023-05-14T02:47:39;22.02;;;12.93;;
63492;SDS011;49638;47.526;10.028;2023-05-14T02:50:40;22.00;;;12.45;;
63492;SDS011;49638;47.526;10.028;2023-05-14T02:53:40;18.63;;;11.43;;
63492;SDS011;49638;47.526;10.028;2023-05-14T02:56:40;21.83;;;11.40;;
63492;SDS011;49638;47.526;10.028;2023-05-14T02:59:41;22.67;;;12.82;;
63492;SDS011;49638;47.526;10.028;2023-05-14T03:02:41;20.52;;;10.90;;
63492;SDS011;49638;47.526;10.028;2023-05-14T03:05:42;18.38;;;10.20;;
63492;SDS011;49638;47.526;10.028;2023-05-14T03:08:42;18.17;;;10.38;;
63492;SDS011;49638;47.526;10.028;2023-05-14T03:11:42;15.65;;;9.60;;
63492;SDS011;49638;47.526;10.028;2023-05-14T03:14:43;19.52;;;10.82;;
63492;SDS011;49638;47.526;10.028;2023-05-14T03:17:43;20.40;;;11.40;;
63492;SDS011;49638;47.526;10.028;2023-05-14T03:20:43;17.92;;;10.80;;
63492;SDS011;49638;47.526;10.028;2023-05-14T03:23:43;21.45;;;11.40;;
63492;SDS011;49638;47.526;10.028;2023-05-14T03:26:44;18.23;;;10.70;;
63492;SDS011;49638;47.526;10.028;2023-05-14T03:29:44;17.90;;;10.15;;
63492;SDS011;49638;47.526;10.028;2023-05-14T03:32:44;16.77;;;8.65;;
63492;SDS011;49638;47.526;10.028;2023-05-14T03:35:44;13.80;;;7.80;;
63492;SDS011;49638;47.526;10.028;2023-05-14T03:38:45;15.05;;;8.52;;
63492;SDS011;49638;47.526;10.028;2023-05-14T03:41:45;14.57;;;8.75;;
63492;SDS011;49638;47.526;10.028;2023-05-14T03:44:46;14.60;;;9.02;;
63492;SDS011;49638;47.526;10.028;2023-05-14T03:47:46;14.98;;;8.45;;
63492;SDS011;49638;47.526;10.028;2023-05-14T03:50:46;12.88;;;7.97;;
63492;SDS011;49638;47.526;10.028;2023-05-14T03:53:47;18.40;;;7.07;;
63492;SDS011;49638;47.526;10.028;2023-05-14T03:56:47;21.40;;;7.57;;
63492;SDS011;49638;47.526;10.028;2023-05-14T03:59:47;18.15;;;8.90;;
63492;SDS011;49638;47.526;10.028;2023-05-14T04:02:47;18.98;;;9.75;;
63492;SDS011;49638;47.526;10.028;2023-05-14T04:05:48;16.27;;;9.15;;
63492;SDS011;49638;47.526;10.028;2023-05-14T04:08:49;14.25;;;8.35;;
63492;SDS011;49638;47.526;10.028;2023-05-14T04:11:50;13.73;;;8.40;;
63492;SDS011;49638;47.526;10.028;2023-05-14T04:14:50;12.07;;;7.63;;
63492;SDS011;49638;47.526;10.028;2023-05-14T04:17:50;10.98;;;6.82;;
63492;SDS011;49638;47.526;10.028;2023-05-14T04:20:50;11.27;;;6.45;;
63492;SDS011;49638;47.526;10.028;2023-05-14T04:23:51;13.75;;;7.30;;
63492;SDS011;49638;47.526;10.028;2023-05-14T04:26:51;11.88;;;6.57;;
63492;SDS011;49638;47.526;10.028;2023-05-14T04:29:51;11.73;;;6.32;;
63492;SDS011;49638;47.526;10.028;2023-05-14T04:32:51;7.82;;;5.22;;
63492;SDS011;49638;47.526;10.028;2023-05-14T04:35:51;7.65;;;4.20;;
63492;SDS011;49638;47.526;10.028;2023-05-14T04:38:52;5.60;;;4.00;;
63492;SDS011;49638;47.526;10.028;2023-05-14T04:41:52;8.57;;;4.60;;
63492;SDS011;49638;47.526;10.028;2023-05-14T04:44:52;7.78;;;4.70;;
63492;SDS011;49638;47.526;10.028;2023-05-14T04:47:53;5.32;;;3.88;;
63492;SDS011;49638;47.526;10.028;2023-05-14T04:50:53;8.30;;;4.82;;
63492;SDS011;49638;47.526;10.028;2023-05-14T04:53:53;7.57;;;5.00;;
63492;SDS011;49638;47.526;10.028;2023-05-14T04:56:54;5.95;;;4.07;;
63492;SDS011;49638;47.526;10.028;2023-05-14T04:59:54;7.72;;;4.25;;
63492;SDS011;49638;47.526;10.028;2023-05-14T05:02:55;6.25;;;4.28;;
63492;SDS011;49638;47.526;10.028;2023-05-14T05:05:55;5.75;;;3.92;;
63492;SDS011;49638;47.526;10.028;2023-05-14T05:08:55;8.18;;;5.07;;
63492;SDS011;49638;47.526;10.028;2023-05-14T05:11:56;9.27;;;5.53;;
63492;SDS011;49638;47.526;10.028;2023-05-14T05:14:56;10.40;;;5.65;;
63492;SDS011;49638;47.526;10.028;2023-05-14T05:17:56;9.68;;;6.07;;
63492;SDS011;49638;47.526;10.028;2023-05-14T05:20:57;8.13;;;5.22;;
63492;SDS011;49638;47.526;10.028;2023-05-14T05:23:57;10.57;;;6.03;;
63492;SDS011;49638;47.526;10.028;2023-05-14T05:26:57;11.82;;;6.60;;
63492;SDS011;49638;47.526;10.028;2023-05-14T05:29:58;10.27;;;6.32;;
63492;SDS011;49638;47.526;10.028;2023-05-14T05:32:59;8.45;;;5.28;;
63492;SDS011;49638;47.526;10.028;2023-05-14T05:36:00;8.55;;;5.43;;
63492;SDS011;49638;47.526;10.028;2023-05-14T05:39:00;10.75;;;6.07;;
63492;SDS011;49638;47.526;10.028;2023-05-14T05:42:00;8.18;;;5.30;;
63492;SDS011;49638;47.526;10.028;2023-05-14T05:45:01;8.95;;;5.57;;
63492;SDS011;49638;47.526;10.028;2023-05-14T05:48:01;12.65;;;7.20;;
63492;SDS011;49638;47.526;10.028;2023-05-14T05:51:02;11.77;;;7.10;;
63492;SDS011;49638;47.526;10.028;2023-05-14T05:54:02;15.50;;;7.68;;
63492;SDS011;49638;47.526;10.028;2023-05-14T05:57:03;17.15;;;10.07;;
63492;SDS011;49638;47.526;10.028;2023-05-14T06:00:03;12.23;;;7.97;;
63492;SDS011;49638;47.526;10.028;2023-05-14T06:03:14;13.35;;;7.38;;
63492;SDS011;49638;47.526;10.028;2023-05-14T06:06:14;16.02;;;9.82;;
63492;SDS011;49638;47.526;10.028;2023-05-14T06:09:14;16.58;;;9.05;;
63492;SDS011;49638;47.526;10.028;2023-05-14T06:12:15;17.35;;;9.88;;
63492;SDS011;49638;47.526;10.028;2023-05-14T06:15:15;15.75;;;9.88;;
63492;SDS011;49638;47.526;10.028;2023-05-14T06:18:15;14.68;;;9.40;;
63492;SDS011;49638;47.526;10.028;2023-05-14T06:21:15;17.25;;;9.88;;
63492;SDS011;49638;47.526;10.028;2023-05-14T06:24:16;16.48;;;10.35;;
63492;SDS011;49638;47.526;10.028;2023-05-14T06:27:16;14.70;;;9.55;;
63492;SDS011;49638;47.526;10.028;2023-05-14T06:30:16;11.95;;;8.02;;
63492;SDS011;49638;47.526;10.028;2023-05-14T06:33:16;13.55;;;8.27;;
63492;SDS011;49638;47.526;10.028;2023-05-14T06:36:17;12.05;;;8.00;;
63492;SDS011;49638;47.526;10.028;2023-05-14T06:39:17;12.80;;;7.38;;
63492;SDS011;49638;47.526;10.028;2023-05-14T06:42:17;10.00;;;7.13;;
63492;SDS011;49638;47.526;10.028;2023-05-14T06:45:18;9.55;;;7.28;;
63492;SDS011;49638;47.526;10.028;2023-05-14T06:48:18;11.63;;;7.68;;
63492;SDS011;49638;47.526;10.028;2023-05-14T06:51:18;18.67;;;12.25;;
63492;SDS011;49638;47.526;10.028;2023-05-14T06:54:19;12.30;;;7.95;;
63492;SDS011;49638;47.526;10.028;2023-05-14T06:57:19;13.13;;;7.50;;
63492;SDS011;49638;47.526;10.028;2023-05-14T07:00:20;9.55;;;7.25;;
63492;SDS011;49638;47.526;10.028;2023-05-14T07:03:20;22.88;;;14.52;;
63492;SDS011;49638;47.526;10.028;2023-05-14T07:06:21;40.63;;;25.77;;
63492;SDS011;49638;47.526;10.028;2023-05-14T07:09:22;27.40;;;19.00;;
63492;SDS011;49638;47.526;10.028;2023-05-14T07:12:22;10.77;;;7.20;;
63492;SDS011;49638;47.526;10.028;2023-05-14T07:15:22;12.10;;;7.88;;
63492;SDS011;49638;47.526;10.028;2023-05-14T07:18:23;11.85;;;8.05;;
63492;SDS011;49638;47.526;10.028;2023-05-14T07:21:23;8.10;;;5.97;;
63492;SDS011;49638;47.526;10.028;2023-05-14T07:24:23;9.23;;;6.22;;
63492;SDS011;49638;47.526;10.028;2023-05-14T07:27:24;9.57;;;6.78;;
63492;SDS011;49638;47.526;10.028;2023-05-14T07:30:24;11.95;;;7.13;;
63492;SDS011;49638;47.526;10.028;2023-05-14T07:33:25;10.10;;;7.00;;
63492;SDS011;49638;47.526;10.028;2023-05-14T07:36:25;10.32;;;5.75;;
63492;SDS011;49638;47.526;10.028;2023-05-14T07:39:26;13.13;;;8.93;;
63492;SDS011;49638;47.526;10.028;2023-05-14T07:42:26;13.77;;;9.10;;
63492;SDS011;49638;47.526;10.028;2023-05-14T07:45:27;14.27;;;9.00;;
63492;SDS011;49638;47.526;10.028;2023-05-14T07:48:27;12.38;;;8.05;;
63492;SDS011;49638;47.526;10.028;2023-05-14T07:51:27;11.75;;;7.82;;
63492;SDS011;49638;47.526;10.028;2023-05-14T07:54:27;13.30;;;8.10;;
63492;SDS011;49638;47.526;10.028;2023-05-14T07:57:28;11.13;;;7.25;;
63492;SDS011;49638;47.526;10.028;2023-05-14T08:00:28;13.93;;;8.55;;
63492;SDS011;49638;47.526;10.028;2023-05-14T08:03:28;16.00;;;9.15;;
63492;SDS011;49638;47.526;10.028;2023-05-14T08:06:28;15.85;;;9.45;;
63492;SDS011;49638;47.526;10.028;2023-05-14T08:09:28;15.07;;;10.40;;
63492;SDS011;49638;47.526;10.028;2023-05-14T08:12:29;15.07;;;9.68;;
63492;SDS011;49638;47.526;10.028;2023-05-14T08:15:29;17.80;;;10.38;;
63492;SDS011;49638;47.526;10.028;2023-05-14T08:18:30;15.60;;;10.15;;
63492;SDS011;49638;47.526;10.028;2023-05-14T08:21:30;19.58;;;11.90;;
63492;SDS011;49638;47.526;10.028;2023-05-14T08:24:31;19.52;;;11.90;;
63492;SDS011;49638;47.526;10.028;2023-05-14T08:27:31;19.65;;;12.10;;
63492;SDS011;49638;47.526;10.028;2023-05-14T08:30:32;21.98;;;12.52;;
63492;SDS011;49638;47.526;10.028;2023-05-14T08:33:32;19.35;;;12.15;;
63492;SDS011;49638;47.526;10.028;2023-05-14T08:36:33;20.15;;;12.50;;
63492;SDS011;49638;47.526;10.028;2023-05-14T08:39:33;21.55;;;13.00;;
63492;SDS011;49638;47.526;10.028;2023-05-14T08:42:33;20.92;;;11.88;;
63492;SDS011;49638;47.526;10.028;2023-05-14T08:45:34;19.40;;;11.88;;
63492;SDS011;49638;47.526;10.028;2023-05-14T08:48:37;13.77;;;8.45;;
63492;SDS011;49638;47.526;10.028;2023-05-14T08:51:41;17.77;;;10.25;;
63492;SDS011;49638;47.526;10.028;2023-05-14T08:54:44;15.93;;;9.85;;
63492;SDS011;49638;47.526;10.028;2023-05-14T08:57:46;15.88;;;9.35;;
63492;SDS011;49638;47.526;10.028;2023-05-14T09:00:46;15.88;;;9.45;;
63492;SDS011;49638;47.526;10.028;2023-05-14T09:03:46;12.05;;;7.65;;
63492;SDS011;49638;47.526;10.028;2023-05-14T09:06:47;14.98;;;8.60;;
63492;SDS011;49638;47.526;10.028;2023-05-14T09:09:50;11.13;;;7.25;;
63492;SDS011;49638;47.526;10.028;2023-05-14T09:12:51;8.45;;;5.38;;
63492;SDS011;49638;47.526;10.028;2023-05-14T09:15:51;9.50;;;6.00;;
63492;SDS011;49638;47.526;10.028;2023-05-14T09:18:51;9.38;;;5.95;;
63492;SDS011;49638;47.526;10.028;2023-05-14T09:21:55;11.93;;;8.00;;
63492;SDS011;49638;47.526;10.028;2023-05-14T09:25:01;3.70;;;2.67;;
63492;SDS011;49638;47.526;10.028;2023-05-14T09:28:07;6.60;;;4.57;;
63492;SDS011;49638;47.526;10.028;2023-05-14T09:31:08;4.13;;;2.20;;
63492;SDS011;49638;47.526;10.028;2023-05-14T09:34:08;38.97;;;16.08;;
63492;SDS011;49638;47.526;10.028;2023-05-14T09:37:08;32.60;;;14.48;;
63492;SDS011;49638;47.526;10.028;2023-05-14T09:40:09;9.68;;;5.18;;
63492;SDS011;49638;47.526;10.028;2023-05-14T09:43:12;35.43;;;16.23;;
63492;SDS011;49638;47.526;10.028;2023-05-14T09:46:12;27.65;;;13.80;;
63492;SDS011;49638;47.526;10.028;2023-05-14T09:49:13;3.25;;;2.85;;
63492;SDS011;49638;47.526;10.028;2023-05-14T09:52:13;3.53;;;2.33;;
63492;SDS011;49638;47.526;10.028;2023-05-14T09:55:14;2.70;;;1.30;;
63492;SDS011;49638;47.526;10.028;2023-05-14T09:58:15;1.02;;;0.85;;
63492;SDS011;49638;47.526;10.028;2023-05-14T10:01:15;3.03;;;1.40;;
63492;SDS011;49638;47.526;10.028;2023-05-14T10:04:18;2.53;;;2.13;;
63492;SDS011;49638;47.526;10.028;2023-05-14T10:07:21;1.30;;;1.20;;
63492;SDS011;49638;47.526;10.028;2023-05-14T10:10:25;2.72;;;1.70;;
63492;SDS011;49638;47.526;10.028;2023-05-14T10:13:32;0.57;;;0.57;;
63492;SDS011;49638;47.526;10.028;2023-05-14T10:16:39;1.50;;;1.23;;
63492;SDS011;49638;47.526;10.028;2023-05-14T10:19:45;2.03;;;1.38;;
63492;SDS011;49638;47.526;10.028;2023-05-14T10:22:49;1.58;;;0.90;;
63492;SDS011;49638;47.526;10.028;2023-05-14T10:25:50;1.80;;;1.55;;
63492;SDS011;49638;47.526;10.028;2023-05-14T10:28:50;4.35;;;3.00;;
63492;SDS011;49638;47.526;10.028;2023-05-14T10:31:54;15.43;;;7.78;;
63492;SDS011;49638;47.526;10.028;2023-05-14T10:34:54;2.10;;;1.90;;
63492;SDS011;49638;47.526;10.028;2023-05-14T10:37:54;1.73;;;1.60;;
63492;SDS011;49638;47.526;10.028;2023-05-14T10:40:56;2.70;;;1.73;;
63492;SDS011;49638;47.526;10.028;2023-05-14T10:43:58;2.42;;;1.75;;
63492;SDS011;49638;47.526;10.028;2023-05-14T10:47:09;2.28;;;1.92;;
63492;SDS011;49638;47.526;10.028;2023-05-14T10:50:10;3.45;;;2.45;;
63492;SDS011;49638;47.526;10.028;2023-05-14T10:53:12;2.95;;;2.40;;
63492;SDS011;49638;47.526;10.028;2023-05-14T10:56:13;2.13;;;1.83;;
63492;SDS011;49638;47.526;10.028;2023-05-14T10:59:15;2.20;;;1.92;;
63492;SDS011;49638;47.526;10.028;2023-05-14T11:02:20;2.95;;;1.80;;
63492;SDS011;49638;47.526;10.028;2023-05-14T11:05:27;2.67;;;1.40;;
63492;SDS011;49638;47.526;10.028;2023-05-14T11:08:28;1.50;;;1.40;;
63492;SDS011;49638;47.526;10.028;2023-05-14T11:11:30;1.73;;;1.63;;
63492;SDS011;49638;47.526;10.028;2023-05-14T11:14:30;1.33;;;0.90;;
63492;SDS011;49638;47.526;10.028;2023-05-14T11:17:30;0.70;;;0.70;;
63492;SDS011;49638;47.526;10.028;2023-05-14T11:20:31;1.25;;;0.63;;
63492;SDS011;49638;47.526;10.028;2023-05-14T11:23:32;0.85;;;0.85;;
63492;SDS011;49638;47.526;10.028;2023-05-14T11:26:32;1.70;;;0.80;;
63492;SDS011;49638;47.526;10.028;2023-05-14T11:29:33;1.23;;;1.13;;
63492;SDS011;49638;47.526;10.028;2023-05-14T11:32:36;0.80;;;0.80;;
63492;SDS011;49638;47.526;10.028;2023-05-14T11:35:37;1.48;;;0.80;;
63492;SDS011;49638;47.526;10.028;2023-05-14T11:41:47;1.23;;;0.90;;
63492;SDS011;49638;47.526;10.028;2023-05-14T11:44:49;1.50;;;0.80;;
63492;SDS011;49638;47.526;10.028;2023-05-14T11:47:53;1.38;;;1.27;;
63492;SDS011;49638;47.526;10.028;2023-05-14T11:50:53;1.92;;;1.42;;
63492;SDS011;49638;47.526;10.028;2023-05-14T11:53:53;1.98;;;1.20;;
63492;SDS011;49638;47.526;10.028;2023-05-14T11:56:54;1.60;;;1.30;;
63492;SDS011;49638;47.526;10.028;2023-05-14T11:59:55;3.70;;;1.00;;
63492;SDS011;49638;47.526;10.028;2023-05-14T12:02:56;0.90;;;0.90;;
63492;SDS011;49638;47.526;10.028;2023-05-14T12:05:57;2.80;;;1.88;;
63492;SDS011;49638;47.526;10.028;2023-05-14T12:08:58;1.00;;;1.00;;
63492;SDS011;49638;47.526;10.028;2023-05-14T12:12:06;1.45;;;1.10;;
63492;SDS011;49638;47.526;10.028;2023-05-14T12:15:11;1.23;;;1.13;;
63492;SDS011;49638;47.526;10.028;2023-05-14T12:18:12;0.93;;;0.90;;
63492;SDS011;49638;47.526;10.028;2023-05-14T12:21:13;1.92;;;1.00;;
63492;SDS011;49638;47.526;10.028;2023-05-14T12:24:14;1.40;;;1.30;;
63492;SDS011;49638;47.526;10.028;2023-05-14T12:27:20;0.80;;;0.80;;
63492;SDS011;49638;47.526;10.028;2023-05-14T12:30:21;2.33;;;1.80;;
63492;SDS011;49638;47.526;10.028;2023-05-14T12:33:21;5.68;;;3.20;;
63492;SDS011;49638;47.526;10.028;2023-05-14T12:36:22;8.45;;;5.22;;
63492;SDS011;49638;47.526;10.028;2023-05-14T12:39:23;8.57;;;5.18;;
63492;SDS011;49638;47.526;10.028;2023-05-14T12:42:23;9.38;;;5.35;;
63492;SDS011;49638;47.526;10.028;2023-05-14T12:45:24;11.05;;;5.80;;
63492;SDS011;49638;47.526;10.028;2023-05-14T12:48:24;9.30;;;5.47;;
63492;SDS011;49638;47.526;10.028;2023-05-14T12:51:25;8.68;;;5.45;;
63492;SDS011;49638;47.526;10.028;2023-05-14T12:54:25;10.55;;;6.43;;
63492;SDS011;49638;47.526;10.028;2023-05-14T12:57:25;13.55;;;7.00;;
63492;SDS011;49638;47.526;10.028;2023-05-14T13:00:26;12.77;;;6.85;;
63492;SDS011;49638;47.526;10.028;2023-05-14T13:03:27;12.63;;;7.57;;
63492;SDS011;49638;47.526;10.028;2023-05-14T13:06:27;15.68;;;8.68;;
63492;SDS011;49638;47.526;10.028;2023-05-14T13:09:27;13.98;;;8.23;;
63492;SDS011;49638;47.526;10.028;2023-05-14T13:12:27;7.20;;;4.53;;
63492;SDS011;49638;47.526;10.028;2023-05-14T13:15:28;6.88;;;4.55;;
63492;SDS011;49638;47.526;10.028;2023-05-14T13:18:30;6.00;;;3.50;;
63492;SDS011;49638;47.526;10.028;2023-05-14T13:21:30;4.78;;;3.55;;
63492;SDS011;49638;47.526;10.028;2023-05-14T13:24:31;6.10;;;4.20;;
63492;SDS011;49638;47.526;10.028;2023-05-14T13:27:31;7.90;;;4.88;;
63492;SDS011;49638;47.526;10.028;2023-05-14T13:30:32;12.23;;;6.15;;
63492;SDS011;49638;47.526;10.028;2023-05-14T13:33:33;7.97;;;5.18;;
63492;SDS011;49638;47.526;10.028;2023-05-14T13:36:34;20.42;;;11.10;;
63492;SDS011;49638;47.526;10.028;2023-05-14T13:39:38;20.08;;;10.52;;
63492;SDS011;49638;47.526;10.028;2023-05-14T13:42:38;12.85;;;7.43;;
63492;SDS011;49638;47.526;10.028;2023-05-14T13:45:38;8.05;;;5.22;;
63492;SDS011;49638;47.526;10.028;2023-05-14T13:48:39;14.13;;;8.75;;
63492;SDS011;49638;47.526;10.028;2023-05-14T13:51:39;17.90;;;10.07;;
63492;SDS011;49638;47.526;10.028;2023-05-14T13:54:39;12.18;;;7.60;;
63492;SDS011;49638;47.526;10.028;2023-05-14T13:57:40;13.85;;;7.85;;
63492;SDS011;49638;47.526;10.028;2023-05-14T14:00:41;12.98;;;7.72;;
63492;SDS011;49638;47.526;10.028;2023-05-14T14:03:42;14.38;;;7.57;;
63492;SDS011;49638;47.526;10.028;2023-05-14T14:06:42;10.30;;;6.55;;
63492;SDS011;49638;47.526;10.028;2023-05-14T14:09:42;13.60;;;8.88;;
63492;SDS011;49638;47.526;10.028;2023-05-14T14:12:44;12.95;;;7.53;;
63492;SDS011;49638;47.526;10.028;2023-05-14T14:15:44;9.32;;;6.40;;
63492;SDS011;49638;47.526;10.028;2023-05-14T14:18:44;12.38;;;7.30;;
63492;SDS011;49638;47.526;10.028;2023-05-14T14:21:44;13.65;;;8.48;;
63492;SDS011;49638;47.526;10.028;2023-05-14T14:24:45;12.23;;;6.75;;
63492;SDS011;49638;47.526;10.028;2023-05-14T14:27:45;15.75;;;9.05;;
63492;SDS011;49638;47.526;10.028;2023-05-14T14:30:45;16.50;;;8.95;;
63492;SDS011;49638;47.526;10.028;2023-05-14T14:33:46;17.80;;;9.80;;
63492;SDS011;49638;47.526;10.028;2023-05-14T14:36:46;17.83;;;10.07;;
63492;SDS011;49638;47.526;10.028;2023-05-14T14:39:46;15.80;;;8.75;;
63492;SDS011;49638;47.526;10.028;2023-05-14T14:42:46;15.93;;;9.23;;
63492;SDS011;49638;47.526;10.028;2023-05-14T14:45:47;17.92;;;10.05;;
63492;SDS011;49638;47.526;10.028;2023-05-14T14:48:47;20.02;;;11.73;;
63492;SDS011;49638;47.526;10.028;2023-05-14T14:51:47;25.13;;;13.02;;
63492;SDS011;49638;47.526;10.028;2023-05-14T14:54:48;22.10;;;11.93;;
63492;SDS011;49638;47.526;10.028;2023-05-14T14:57:48;22.27;;;12.40;;
63492;SDS011;49638;47.526;10.028;2023-05-14T15:00:49;20.55;;;12.52;;
63492;SDS011;49638;47.526;10.028;2023-05-14T15:03:53;24.05;;;13.32;;
63492;SDS011;49638;47.526;10.028;2023-05-14T15:06:53;26.55;;;15.20;;
63492;SDS011;49638;47.526;10.028;2023-05-14T15:09:54;20.70;;;12.77;;
63492;SDS011;49638;47.526;10.028;2023-05-14T15:12:56;19.45;;;11.35;;
63492;SDS011;49638;47.526;10.028;2023-05-14T15:15:57;16.53;;;10.93;;
63492;SDS011;49638;47.526;10.028;2023-05-14T15:18:57;19.08;;;11.13;;
63492;SDS011;49638;47.526;10.028;2023-05-14T15:21:58;18.55;;;11.18;;
63492;SDS011;49638;47.526;10.028;2023-05-14T15:24:58;16.35;;;10.00;;
63492;SDS011;49638;47.526;10.028;2023-05-14T15:27:58;15.02;;;9.52;;
63492;SDS011;49638;47.526;10.028;2023-05-14T15:30:58;15.95;;;9.57;;
63492;SDS011;49638;47.526;10.028;2023-05-14T15:33:59;15.95;;;10.30;;
63492;SDS011;49638;47.526;10.028;2023-05-14T15:36:59;16.52;;;10.05;;
63492;SDS011;49638;47.526;10.028;2023-05-14T15:39:59;15.90;;;10.13;;
63492;SDS011;49638;47.526;10.028;2023-05-14T15:43:00;17.13;;;10.13;;
63492;SDS011;49638;47.526;10.028;2023-05-14T15:46:00;20.23;;;11.68;;
63492;SDS011;49638;47.526;10.028;2023-05-14T15:49:01;18.48;;;9.57;;
63492;SDS011;49638;47.526;10.028;2023-05-14T15:52:01;17.00;;;9.07;;
63492;SDS011;49638;47.526;10.028;2023-05-14T15:55:02;73.30;;;46.30;;
63492;SDS011;49638;47.526;10.028;2023-05-14T15:58:04;102.63;;;61.92;;
63492;SDS011;49638;47.526;10.028;2023-05-14T16:01:05;24.90;;;17.85;;
63492;SDS011;49638;47.526;10.028;2023-05-14T16:04:05;24.27;;;16.95;;
63492;SDS011;49638;47.526;10.028;2023-05-14T16:07:06;20.52;;;16.10;;
63492;SDS011;49638;47.526;10.028;2023-05-14T16:10:10;12.90;;;8.48;;
63492;SDS011;49638;47.526;10.028;2023-05-14T16:13:11;8.25;;;5.35;;
63492;SDS011;49638;47.526;10.028;2023-05-14T16:16:11;14.57;;;12.25;;
63492;SDS011;49638;47.526;10.028;2023-05-14T16:19:12;10.60;;;6.75;;
63492;SDS011;49638;47.526;10.028;2023-05-14T16:22:12;10.43;;;7.10;;
63492;SDS011;49638;47.526;10.028;2023-05-14T16:25:12;11.20;;;9.07;;
63492;SDS011;49638;47.526;10.028;2023-05-14T16:28:12;11.15;;;8.10;;
63492;SDS011;49638;47.526;10.028;2023-05-14T16:31:13;11.63;;;8.40;;
63492;SDS011;49638;47.526;10.028;2023-05-14T16:34:14;10.52;;;7.72;;
63492;SDS011;49638;47.526;10.028;2023-05-14T16:37:15;14.35;;;9.30;;
63492;SDS011;49638;47.526;10.028;2023-05-14T16:40:19;9.55;;;6.28;;
63492;SDS011;49638;47.526;10.028;2023-05-14T16:43:21;15.40;;;11.20;;
63492;SDS011;49638;47.526;10.028;2023-05-14T16:46:22;10.68;;;7.72;;
63492;SDS011;49638;47.526;10.028;2023-05-14T16:49:22;11.80;;;7.68;;
63492;SDS011;49638;47.526;10.028;2023-05-14T16:52:22;12.73;;;7.72;;
63492;SDS011;49638;47.526;10.028;2023-05-14T16:55:22;12.45;;;8.43;;
63492;SDS011;49638;47.526;10.028;2023-05-14T16:58:23;10.65;;;7.15;;
63492;SDS011;49638;47.526;10.028;2023-05-14T17:01:23;11.60;;;7.63;;
63492;SDS011;49638;47.526;10.028;2023-05-14T17:04:24;12.77;;;6.80;;
63492;SDS011;49638;47.526;10.028;2023-05-14T17:07:25;11.40;;;7.63;;
63492;SDS011;49638;47.526;10.028;2023-05-14T17:10:25;12.55;;;8.15;;
63492;SDS011;49638;47.526;10.028;2023-05-14T17:13:26;14.93;;;8.38;;
63492;SDS011;49638;47.526;10.028;2023-05-14T17:16:27;17.65;;;9.75;;
63492;SDS011;49638;47.526;10.028;2023-05-14T17:19:27;14.35;;;8.88;;
63492;SDS011;49638;47.526;10.028;2023-05-14T17:22:27;12.90;;;8.30;;
63492;SDS011;49638;47.526;10.028;2023-05-14T17:25:28;12.90;;;7.00;;
63492;SDS011;49638;47.526;10.028;2023-05-14T17:28:28;10.43;;;7.05;;
63492;SDS011;49638;47.526;10.028;2023-05-14T17:31:28;14.20;;;7.63;;
63492;SDS011;49638;47.526;10.028;2023-05-14T17:34:29;16.20;;;7.53;;
63492;SDS011;49638;47.526;10.028;2023-05-14T17:37:29;12.32;;;8.05;;
63492;SDS011;49638;47.526;10.028;2023-05-14T17:40:30;13.57;;;7.82;;
63492;SDS011;49638;47.526;10.028;2023-05-14T17:43:30;18.10;;;11.18;;